sensor_id;sensor_type;location;lat;lon;timestamp;P1;durP1;ratioP1;P2;durP2;ratioP2
15490;SDS011;7847;50.930;4.336;2023-07-16T00:02:02;0.20;;;0.20;;
15490;SDS011;7847;50.930;4.336;2023-07-16T00:04:31;0.10;;;0.10;;
15490;SDS011;7847;50.930;4.336;2023-07-16T00:06:59;0.20;;;0.20;;
15490;SDS011;7847;50.930;4.336;2023-07-16T00:09:25;0.10;;;0.10;;
15490;SDS011;7847;50.930;4.336;2023-07-16T00:11:54;0.10;;;0.10;;
15490;SDS011;7847;50.930;4.336;2023-07-16T00:14:20;0.10;;;0.10;;
15490;SDS011;7847;50.930;4.336;2023-07-16T00:16:46;0.10;;;0.10;;
15490;SDS011;7847;50.930;4.336;2023-07-16T00:19:14;0.10;;;0.10;;
15490;SDS011;7847;50.930;4.336;2023-07-16T00:21:40;0.10;;;0.10;;
15490;SDS011;7847;50.930;4.336;2023-07-16T00:24:06;0.10;;;0.10;;
15490;SDS011;7847;50.930;4.336;2023-07-16T00:26:32;0.20;;;0.20;;
15490;SDS011;7847;50.930;4.336;2023-07-16T00:28:58;0.20;;;0.20;;
15490;SDS011;7847;50.930;4.336;2023-07-16T00:31:24;0.20;;;0.20;;
15490;SDS011;7847;50.930;4.336;2023-07-16T00:33:50;0.10;;;0.10;;
15490;SDS011;7847;50.930;4.336;2023-07-16T00:36:16;0.10;;;0.10;;
15490;SDS011;7847;50.930;4.336;2023-07-16T00:38:42;0.10;;;0.10;;
15490;SDS011;7847;50.930;4.336;2023-07-16T00:41:10;0.10;;;0.10;;
15490;SDS011;7847;50.930;4.336;2023-07-16T00:43:36;0.20;;;0.20;;
15490;SDS011;7847;50.930;4.336;2023-07-16T00:46:02;0.10;;;0.10;;
15490;SDS011;7847;50.930;4.336;2023-07-16T00:48:28;0.10;;;0.10;;
15490;SDS011;7847;50.930;4.336;2023-07-16T00:50:57;0.10;;;0.10;;
15490;SDS011;7847;50.930;4.336;2023-07-16T00:53:26;0.10;;;0.10;;
15490;SDS011;7847;50.930;4.336;2023-07-16T00:55:52;0.20;;;0.20;;
15490;SDS011;7847;50.930;4.336;2023-07-16T00:58:21;0.20;;;0.20;;
15490;SDS011;7847;50.930;4.336;2023-07-16T01:00:50;0.20;;;0.20;;
15490;SDS011;7847;50.930;4.336;2023-07-16T01:03:16;0.20;;;0.20;;
15490;SDS011;7847;50.930;4.336;2023-07-16T01:05:47;0.10;;;0.10;;
15490;SDS011;7847;50.930;4.336;2023-07-16T01:08:17;0.20;;;0.20;;
15490;SDS011;7847;50.930;4.336;2023-07-16T01:10:44;0.20;;;0.20;;
15490;SDS011;7847;50.930;4.336;2023-07-16T01:13:11;0.20;;;0.20;;
15490;SDS011;7847;50.930;4.336;2023-07-16T01:15:37;0.20;;;0.20;;
15490;SDS011;7847;50.930;4.336;2023-07-16T01:18:03;0.20;;;0.20;;
15490;SDS011;7847;50.930;4.336;2023-07-16T01:20:30;0.20;;;0.20;;
15490;SDS011;7847;50.930;4.336;2023-07-16T01:30:45;0.20;;;0.20;;
15490;SDS011;7847;50.930;4.336;2023-07-16T01:33:12;0.20;;;0.20;;
15490;SDS011;7847;50.930;4.336;2023-07-16T01:35:38;0.20;;;0.20;;
15490;SDS011;7847;50.930;4.336;2023-07-16T01:38:05;0.20;;;0.20;;
15490;SDS011;7847;50.930;4.336;2023-07-16T01:40:32;0.20;;;0.20;;
15490;SDS011;7847;50.930;4.336;2023-07-16T01:42:58;0.20;;;0.20;;
15490;SDS011;7847;50.930;4.336;2023-07-16T01:45:24;0.20;;;0.20;;
15490;SDS011;7847;50.930;4.336;2023-07-16T01:47:54;0.20;;;0.20;;
15490;SDS011;7847;50.930;4.336;2023-07-16T01:50:24;0.20;;;0.20;;
15490;SDS011;7847;50.930;4.336;2023-07-16T01:52:50;0.20;;;0.20;;
15490;SDS011;7847;50.930;4.336;2023-07-16T01:55:16;0.20;;;0.20;;
15490;SDS011;7847;50.930;4.336;2023-07-16T01:57:42;0.20;;;0.20;;
15490;SDS011;7847;50.930;4.336;2023-07-16T02:00:09;0.20;;;0.20;;
15490;SDS011;7847;50.930;4.336;2023-07-16T02:02:35;0.20;;;0.20;;
15490;SDS011;7847;50.930;4.336;2023-07-16T02:05:01;0.20;;;0.20;;
15490;SDS011;7847;50.930;4.336;2023-07-16T02:07:27;0.20;;;0.20;;
15490;SDS011;7847;50.930;4.336;2023-07-16T02:09:53;0.10;;;0.10;;
15490;SDS011;7847;50.930;4.336;2023-07-16T02:12:19;0.20;;;0.20;;
15490;SDS011;7847;50.930;4.336;2023-07-16T02:14:45;0.20;;;0.20;;
15490;SDS011;7847;50.930;4.336;2023-07-16T02:17:11;0.10;;;0.10;;
15490;SDS011;7847;50.930;4.336;2023-07-16T02:19:37;0.20;;;0.20;;
15490;SDS011;7847;50.930;4.336;2023-07-16T02:22:03;0.20;;;0.20;;
15490;SDS011;7847;50.930;4.336;2023-07-16T02:24:29;0.20;;;0.20;;
15490;SDS011;7847;50.930;4.336;2023-07-16T02:26:55;0.20;;;0.20;;
15490;SDS011;7847;50.930;4.336;2023-07-16T02:29:21;0.20;;;0.20;;
15490;SDS011;7847;50.930;4.336;2023-07-16T02:31:47;0.20;;;0.20;;
15490;SDS011;7847;50.930;4.336;2023-07-16T02:34:13;0.10;;;0.10;;
15490;SDS011;7847;50.930;4.336;2023-07-16T02:36:39;0.20;;;0.20;;
15490;SDS011;7847;50.930;4.336;2023-07-16T02:39:05;0.20;;;0.20;;
15490;SDS011;7847;50.930;4.336;2023-07-16T02:41:31;0.20;;;0.20;;
15490;SDS011;7847;50.930;4.336;2023-07-16T02:44:01;0.20;;;0.20;;
15490;SDS011;7847;50.930;4.336;2023-07-16T02:46:27;0.20;;;0.20;;
15490;SDS011;7847;50.930;4.336;2023-07-16T02:48:53;0.20;;;0.20;;
15490;SDS011;7847;50.930;4.336;2023-07-16T02:51:19;0.17;;;0.17;;
15490;SDS011;7847;50.930;4.336;2023-07-16T02:53:45;0.20;;;0.20;;
15490;SDS011;7847;50.930;4.336;2023-07-16T02:56:11;0.20;;;0.20;;
15490;SDS011;7847;50.930;4.336;2023-07-16T02:58:37;0.20;;;0.20;;
15490;SDS011;7847;50.930;4.336;2023-07-16T03:01:03;0.20;;;0.20;;
15490;SDS011;7847;50.930;4.336;2023-07-16T03:03:29;0.25;;;0.25;;
15490;SDS011;7847;50.930;4.336;2023-07-16T03:05:55;0.20;;;0.20;;
15490;SDS011;7847;50.930;4.336;2023-07-16T03:08:21;0.20;;;0.20;;
15490;SDS011;7847;50.930;4.336;2023-07-16T03:10:51;0.20;;;0.20;;
15490;SDS011;7847;50.930;4.336;2023-07-16T03:13:17;0.20;;;0.20;;
15490;SDS011;7847;50.930;4.336;2023-07-16T03:15:44;0.20;;;0.20;;
15490;SDS011;7847;50.930;4.336;2023-07-16T03:18:10;0.20;;;0.20;;
15490;SDS011;7847;50.930;4.336;2023-07-16T03:20:36;0.20;;;0.20;;
15490;SDS011;7847;50.930;4.336;2023-07-16T03:23:02;0.20;;;0.20;;
15490;SDS011;7847;50.930;4.336;2023-07-16T03:25:28;0.20;;;0.20;;
15490;SDS011;7847;50.930;4.336;2023-07-16T03:27:54;0.20;;;0.20;;
15490;SDS011;7847;50.930;4.336;2023-07-16T03:30:20;0.20;;;0.20;;
15490;SDS011;7847;50.930;4.336;2023-07-16T03:32:46;0.20;;;0.20;;
15490;SDS011;7847;50.930;4.336;2023-07-16T03:35:12;0.20;;;0.20;;
15490;SDS011;7847;50.930;4.336;2023-07-16T03:37:38;0.20;;;0.20;;
15490;SDS011;7847;50.930;4.336;2023-07-16T03:40:14;0.20;;;0.20;;
15490;SDS011;7847;50.930;4.336;2023-07-16T03:42:41;0.20;;;0.20;;
15490;SDS011;7847;50.930;4.336;2023-07-16T03:45:08;0.10;;;0.10;;
15490;SDS011;7847;50.930;4.336;2023-07-16T03:47:34;0.20;;;0.20;;
15490;SDS011;7847;50.930;4.336;2023-07-16T03:50:00;0.20;;;0.20;;
15490;SDS011;7847;50.930;4.336;2023-07-16T03:52:26;0.20;;;0.20;;
15490;SDS011;7847;50.930;4.336;2023-07-16T03:54:53;0.20;;;0.20;;
15490;SDS011;7847;50.930;4.336;2023-07-16T03:57:19;0.20;;;0.20;;
15490;SDS011;7847;50.930;4.336;2023-07-16T03:59:46;0.20;;;0.20;;
15490;SDS011;7847;50.930;4.336;2023-07-16T04:02:12;0.20;;;0.20;;
15490;SDS011;7847;50.930;4.336;2023-07-16T04:04:38;0.10;;;0.10;;
15490;SDS011;7847;50.930;4.336;2023-07-16T04:07:04;0.20;;;0.20;;
15490;SDS011;7847;50.930;4.336;2023-07-16T04:09:30;0.20;;;0.20;;
15490;SDS011;7847;50.930;4.336;2023-07-16T04:11:56;0.20;;;0.20;;
15490;SDS011;7847;50.930;4.336;2023-07-16T04:14:22;0.20;;;0.20;;
15490;SDS011;7847;50.930;4.336;2023-07-16T04:16:48;0.20;;;0.20;;
15490;SDS011;7847;50.930;4.336;2023-07-16T04:19:14;0.20;;;0.20;;
15490;SDS011;7847;50.930;4.336;2023-07-16T04:21:40;0.20;;;0.20;;
15490;SDS011;7847;50.930;4.336;2023-07-16T04:24:06;0.20;;;0.20;;
15490;SDS011;7847;50.930;4.336;2023-07-16T04:26:32;0.20;;;0.20;;
15490;SDS011;7847;50.930;4.336;2023-07-16T04:28:58;0.20;;;0.20;;
15490;SDS011;7847;50.930;4.336;2023-07-16T04:31:24;0.20;;;0.20;;
15490;SDS011;7847;50.930;4.336;2023-07-16T04:33:50;0.20;;;0.20;;
15490;SDS011;7847;50.930;4.336;2023-07-16T04:36:16;0.20;;;0.20;;
15490;SDS011;7847;50.930;4.336;2023-07-16T04:38:42;0.20;;;0.20;;
15490;SDS011;7847;50.930;4.336;2023-07-16T04:41:08;0.20;;;0.20;;
15490;SDS011;7847;50.930;4.336;2023-07-16T04:43:34;0.20;;;0.20;;
15490;SDS011;7847;50.930;4.336;2023-07-16T04:46:00;0.15;;;0.15;;
15490;SDS011;7847;50.930;4.336;2023-07-16T04:48:26;0.20;;;0.20;;
15490;SDS011;7847;50.930;4.336;2023-07-16T04:50:52;0.20;;;0.20;;
15490;SDS011;7847;50.930;4.336;2023-07-16T04:53:18;0.20;;;0.20;;
15490;SDS011;7847;50.930;4.336;2023-07-16T04:55:44;0.20;;;0.20;;
15490;SDS011;7847;50.930;4.336;2023-07-16T04:58:11;0.20;;;0.20;;
15490;SDS011;7847;50.930;4.336;2023-07-16T05:00:37;0.10;;;0.10;;
15490;SDS011;7847;50.930;4.336;2023-07-16T05:03:03;0.20;;;0.20;;
15490;SDS011;7847;50.930;4.336;2023-07-16T05:05:29;0.20;;;0.20;;
15490;SDS011;7847;50.930;4.336;2023-07-16T05:07:55;0.20;;;0.20;;
15490;SDS011;7847;50.930;4.336;2023-07-16T05:10:21;0.15;;;0.15;;
15490;SDS011;7847;50.930;4.336;2023-07-16T05:12:47;0.20;;;0.20;;
15490;SDS011;7847;50.930;4.336;2023-07-16T05:15:14;0.20;;;0.20;;
15490;SDS011;7847;50.930;4.336;2023-07-16T05:17:40;0.20;;;0.20;;
15490;SDS011;7847;50.930;4.336;2023-07-16T05:20:06;0.20;;;0.20;;
15490;SDS011;7847;50.930;4.336;2023-07-16T05:22:32;0.20;;;0.20;;
15490;SDS011;7847;50.930;4.336;2023-07-16T05:24:58;0.13;;;0.13;;
15490;SDS011;7847;50.930;4.336;2023-07-16T05:27:25;0.20;;;0.20;;
15490;SDS011;7847;50.930;4.336;2023-07-16T05:29:51;0.20;;;0.20;;
15490;SDS011;7847;50.930;4.336;2023-07-16T05:32:17;0.20;;;0.20;;
15490;SDS011;7847;50.930;4.336;2023-07-16T05:34:43;0.20;;;0.20;;
15490;SDS011;7847;50.930;4.336;2023-07-16T05:37:09;0.20;;;0.20;;
15490;SDS011;7847;50.930;4.336;2023-07-16T05:39:35;0.20;;;0.20;;
15490;SDS011;7847;50.930;4.336;2023-07-16T05:42:01;0.20;;;0.20;;
15490;SDS011;7847;50.930;4.336;2023-07-16T05:44:27;0.10;;;0.10;;
15490;SDS011;7847;50.930;4.336;2023-07-16T05:46:53;0.20;;;0.20;;
15490;SDS011;7847;50.930;4.336;2023-07-16T05:49:19;0.20;;;0.20;;
15490;SDS011;7847;50.930;4.336;2023-07-16T05:51:45;0.20;;;0.20;;
15490;SDS011;7847;50.930;4.336;2023-07-16T05:54:12;0.20;;;0.20;;
15490;SDS011;7847;50.930;4.336;2023-07-16T05:56:38;0.17;;;0.17;;
15490;SDS011;7847;50.930;4.336;2023-07-16T05:59:04;0.20;;;0.20;;
15490;SDS011;7847;50.930;4.336;2023-07-16T06:01:30;0.20;;;0.20;;
15490;SDS011;7847;50.930;4.336;2023-07-16T06:03:56;0.20;;;0.20;;
15490;SDS011;7847;50.930;4.336;2023-07-16T06:06:22;0.20;;;0.20;;
15490;SDS011;7847;50.930;4.336;2023-07-16T06:08:48;0.10;;;0.10;;
15490;SDS011;7847;50.930;4.336;2023-07-16T06:11:14;0.10;;;0.10;;
15490;SDS011;7847;50.930;4.336;2023-07-16T06:13:40;0.10;;;0.10;;
15490;SDS011;7847;50.930;4.336;2023-07-16T06:16:06;0.10;;;0.10;;
15490;SDS011;7847;50.930;4.336;2023-07-16T06:18:32;0.20;;;0.20;;
15490;SDS011;7847;50.930;4.336;2023-07-16T06:20:58;0.10;;;0.10;;
15490;SDS011;7847;50.930;4.336;2023-07-16T06:23:27;0.10;;;0.10;;
15490;SDS011;7847;50.930;4.336;2023-07-16T06:25:54;0.10;;;0.10;;
15490;SDS011;7847;50.930;4.336;2023-07-16T06:28:20;0.20;;;0.20;;
15490;SDS011;7847;50.930;4.336;2023-07-16T06:30:46;0.13;;;0.13;;
15490;SDS011;7847;50.930;4.336;2023-07-16T06:33:12;0.20;;;0.20;;
15490;SDS011;7847;50.930;4.336;2023-07-16T06:35:38;0.13;;;0.13;;
15490;SDS011;7847;50.930;4.336;2023-07-16T06:38:04;0.20;;;0.20;;
15490;SDS011;7847;50.930;4.336;2023-07-16T06:40:30;0.10;;;0.10;;
15490;SDS011;7847;50.930;4.336;2023-07-16T06:42:57;0.20;;;0.20;;
15490;SDS011;7847;50.930;4.336;2023-07-16T06:45:23;0.10;;;0.10;;
15490;SDS011;7847;50.930;4.336;2023-07-16T06:47:49;0.20;;;0.20;;
15490;SDS011;7847;50.930;4.336;2023-07-16T06:50:15;0.10;;;0.10;;
15490;SDS011;7847;50.930;4.336;2023-07-16T06:52:41;0.20;;;0.20;;
15490;SDS011;7847;50.930;4.336;2023-07-16T06:55:07;0.10;;;0.10;;
15490;SDS011;7847;50.930;4.336;2023-07-16T06:57:33;0.20;;;0.20;;
15490;SDS011;7847;50.930;4.336;2023-07-16T06:59:59;0.10;;;0.10;;
15490;SDS011;7847;50.930;4.336;2023-07-16T07:02:25;0.20;;;0.20;;
15490;SDS011;7847;50.930;4.336;2023-07-16T07:04:51;0.20;;;0.20;;
15490;SDS011;7847;50.930;4.336;2023-07-16T07:07:17;0.10;;;0.10;;
15490;SDS011;7847;50.930;4.336;2023-07-16T07:09:46;0.10;;;0.10;;
15490;SDS011;7847;50.930;4.336;2023-07-16T07:12:13;0.20;;;0.20;;
15490;SDS011;7847;50.930;4.336;2023-07-16T07:14:39;0.10;;;0.10;;
15490;SDS011;7847;50.930;4.336;2023-07-16T07:17:05;0.10;;;0.10;;
15490;SDS011;7847;50.930;4.336;2023-07-16T07:19:31;0.10;;;0.10;;
15490;SDS011;7847;50.930;4.336;2023-07-16T07:21:58;0.10;;;0.10;;
15490;SDS011;7847;50.930;4.336;2023-07-16T07:24:24;0.15;;;0.15;;
15490;SDS011;7847;50.930;4.336;2023-07-16T07:26:50;0.20;;;0.20;;
15490;SDS011;7847;50.930;4.336;2023-07-16T07:29:16;0.10;;;0.10;;
15490;SDS011;7847;50.930;4.336;2023-07-16T07:31:42;0.10;;;0.10;;
15490;SDS011;7847;50.930;4.336;2023-07-16T07:34:08;0.20;;;0.20;;
15490;SDS011;7847;50.930;4.336;2023-07-16T07:36:34;0.20;;;0.20;;
15490;SDS011;7847;50.930;4.336;2023-07-16T07:39:00;0.20;;;0.20;;
15490;SDS011;7847;50.930;4.336;2023-07-16T07:41:26;0.10;;;0.10;;
15490;SDS011;7847;50.930;4.336;2023-07-16T07:43:52;0.20;;;0.20;;
15490;SDS011;7847;50.930;4.336;2023-07-16T07:46:18;0.20;;;0.20;;
15490;SDS011;7847;50.930;4.336;2023-07-16T07:48:44;0.10;;;0.10;;
15490;SDS011;7847;50.930;4.336;2023-07-16T07:51:10;0.10;;;0.10;;
15490;SDS011;7847;50.930;4.336;2023-07-16T07:53:36;0.10;;;0.10;;
15490;SDS011;7847;50.930;4.336;2023-07-16T07:56:02;0.10;;;0.10;;
15490;SDS011;7847;50.930;4.336;2023-07-16T07:58:28;0.10;;;0.10;;
15490;SDS011;7847;50.930;4.336;2023-07-16T08:00:54;0.10;;;0.10;;
15490;SDS011;7847;50.930;4.336;2023-07-16T08:03:20;0.10;;;0.10;;
15490;SDS011;7847;50.930;4.336;2023-07-16T08:05:48;0.08;;;0.08;;
15490;SDS011;7847;50.930;4.336;2023-07-16T08:08:14;0.10;;;0.10;;
15490;SDS011;7847;50.930;4.336;2023-07-16T08:10:40;0.10;;;0.10;;
15490;SDS011;7847;50.930;4.336;2023-07-16T08:13:06;0.10;;;0.10;;
15490;SDS011;7847;50.930;4.336;2023-07-16T08:15:32;0.10;;;0.10;;
15490;SDS011;7847;50.930;4.336;2023-07-16T08:17:58;0.10;;;0.10;;
15490;SDS011;7847;50.930;4.336;2023-07-16T08:20:25;0.17;;;0.17;;
15490;SDS011;7847;50.930;4.336;2023-07-16T08:22:51;0.10;;;0.10;;
15490;SDS011;7847;50.930;4.336;2023-07-16T08:25:17;0.10;;;0.10;;
15490;SDS011;7847;50.930;4.336;2023-07-16T08:27:43;0.10;;;0.10;;
15490;SDS011;7847;50.930;4.336;2023-07-16T08:30:09;0.10;;;0.10;;
15490;SDS011;7847;50.930;4.336;2023-07-16T08:32:35;0.10;;;0.10;;
15490;SDS011;7847;50.930;4.336;2023-07-16T08:35:01;0.10;;;0.10;;
15490;SDS011;7847;50.930;4.336;2023-07-16T08:37:28;0.10;;;0.10;;
15490;SDS011;7847;50.930;4.336;2023-07-16T08:39:54;0.10;;;0.10;;
15490;SDS011;7847;50.930;4.336;2023-07-16T08:42:20;0.10;;;0.10;;
15490;SDS011;7847;50.930;4.336;2023-07-16T08:44:50;0.10;;;0.10;;
15490;SDS011;7847;50.930;4.336;2023-07-16T08:47:16;0.10;;;0.10;;
15490;SDS011;7847;50.930;4.336;2023-07-16T08:49:44;0.10;;;0.10;;
15490;SDS011;7847;50.930;4.336;2023-07-16T08:52:17;0.10;;;0.10;;
15490;SDS011;7847;50.930;4.336;2023-07-16T08:54:44;0.10;;;0.10;;
15490;SDS011;7847;50.930;4.336;2023-07-16T08:57:10;0.10;;;0.10;;
15490;SDS011;7847;50.930;4.336;2023-07-16T08:59:36;0.00;;;0.00;;
15490;SDS011;7847;50.930;4.336;2023-07-16T09:02:02;0.10;;;0.10;;
15490;SDS011;7847;50.930;4.336;2023-07-16T09:04:29;0.10;;;0.10;;
15490;SDS011;7847;50.930;4.336;2023-07-16T09:06:55;0.10;;;0.10;;
15490;SDS011;7847;50.930;4.336;2023-07-16T09:09:24;0.10;;;0.10;;
15490;SDS011;7847;50.930;4.336;2023-07-16T09:11:50;0.10;;;0.10;;
15490;SDS011;7847;50.930;4.336;2023-07-16T09:14:17;0.17;;;0.17;;
15490;SDS011;7847;50.930;4.336;2023-07-16T09:16:47;0.17;;;0.17;;
15490;SDS011;7847;50.930;4.336;2023-07-16T09:19:13;0.10;;;0.10;;
15490;SDS011;7847;50.930;4.336;2023-07-16T09:21:42;0.10;;;0.10;;
15490;SDS011;7847;50.930;4.336;2023-07-16T09:24:08;0.10;;;0.10;;
15490;SDS011;7847;50.930;4.336;2023-07-16T09:26:38;0.10;;;0.10;;
15490;SDS011;7847;50.930;4.336;2023-07-16T09:29:07;0.10;;;0.10;;
15490;SDS011;7847;50.930;4.336;2023-07-16T09:31:33;0.00;;;0.00;;
15490;SDS011;7847;50.930;4.336;2023-07-16T09:33:59;0.10;;;0.10;;
15490;SDS011;7847;50.930;4.336;2023-07-16T09:36:28;0.10;;;0.10;;
15490;SDS011;7847;50.930;4.336;2023-07-16T09:38:57;0.10;;;0.10;;
15490;SDS011;7847;50.930;4.336;2023-07-16T09:41:23;0.10;;;0.10;;
15490;SDS011;7847;50.930;4.336;2023-07-16T09:43:49;0.10;;;0.10;;
15490;SDS011;7847;50.930;4.336;2023-07-16T09:49:26;0.00;;;0.00;;
15490;SDS011;7847;50.930;4.336;2023-07-16T09:51:56;0.10;;;0.10;;
15490;SDS011;7847;50.930;4.336;2023-07-16T09:54:25;0.10;;;0.10;;
15490;SDS011;7847;50.930;4.336;2023-07-16T09:56:54;0.10;;;0.10;;
15490;SDS011;7847;50.930;4.336;2023-07-16T09:59:27;0.20;;;0.20;;
15490;SDS011;7847;50.930;4.336;2023-07-16T10:01:56;0.10;;;0.10;;
15490;SDS011;7847;50.930;4.336;2023-07-16T10:04:25;0.10;;;0.10;;
15490;SDS011;7847;50.930;4.336;2023-07-16T10:06:58;0.10;;;0.10;;
15490;SDS011;7847;50.930;4.336;2023-07-16T10:12:19;0.10;;;0.10;;
15490;SDS011;7847;50.930;4.336;2023-07-16T10:14:50;0.10;;;0.10;;
15490;SDS011;7847;50.930;4.336;2023-07-16T10:17:19;0.10;;;0.10;;
15490;SDS011;7847;50.930;4.336;2023-07-16T10:19:49;0.10;;;0.10;;
15490;SDS011;7847;50.930;4.336;2023-07-16T10:22:17;0.10;;;0.10;;
15490;SDS011;7847;50.930;4.336;2023-07-16T10:24:43;0.10;;;0.10;;
15490;SDS011;7847;50.930;4.336;2023-07-16T10:27:09;0.10;;;0.10;;
15490;SDS011;7847;50.930;4.336;2023-07-16T10:29:38;0.10;;;0.10;;
15490;SDS011;7847;50.930;4.336;2023-07-16T10:32:04;0.10;;;0.10;;
15490;SDS011;7847;50.930;4.336;2023-07-16T10:34:34;0.10;;;0.10;;
15490;SDS011;7847;50.930;4.336;2023-07-16T10:37:00;0.10;;;0.10;;
15490;SDS011;7847;50.930;4.336;2023-07-16T10:39:26;0.10;;;0.10;;
15490;SDS011;7847;50.930;4.336;2023-07-16T10:41:54;0.10;;;0.10;;
15490;SDS011;7847;50.930;4.336;2023-07-16T10:44:22;0.10;;;0.10;;
15490;SDS011;7847;50.930;4.336;2023-07-16T10:46:48;0.00;;;0.00;;
15490;SDS011;7847;50.930;4.336;2023-07-16T10:49:25;0.10;;;0.10;;
15490;SDS011;7847;50.930;4.336;2023-07-16T10:51:51;0.00;;;0.00;;
15490;SDS011;7847;50.930;4.336;2023-07-16T10:54:21;0.10;;;0.10;;
15490;SDS011;7847;50.930;4.336;2023-07-16T10:57:03;0.10;;;0.10;;
15490;SDS011;7847;50.930;4.336;2023-07-16T10:59:53;0.13;;;0.13;;
15490;SDS011;7847;50.930;4.336;2023-07-16T11:02:27;0.10;;;0.10;;
15490;SDS011;7847;50.930;4.336;2023-07-16T11:04:54;0.10;;;0.10;;
15490;SDS011;7847;50.930;4.336;2023-07-16T11:07:26;0.10;;;0.10;;
15490;SDS011;7847;50.930;4.336;2023-07-16T11:09:57;0.10;;;0.10;;
15490;SDS011;7847;50.930;4.336;2023-07-16T11:12:27;0.10;;;0.10;;
15490;SDS011;7847;50.930;4.336;2023-07-16T11:15:05;0.10;;;0.10;;
15490;SDS011;7847;50.930;4.336;2023-07-16T11:17:36;0.10;;;0.10;;
15490;SDS011;7847;50.930;4.336;2023-07-16T11:20:12;0.10;;;0.10;;
15490;SDS011;7847;50.930;4.336;2023-07-16T11:22:46;0.10;;;0.10;;
15490;SDS011;7847;50.930;4.336;2023-07-16T11:25:16;0.10;;;0.10;;
15490;SDS011;7847;50.930;4.336;2023-07-16T11:27:42;0.10;;;0.10;;
15490;SDS011;7847;50.930;4.336;2023-07-16T11:30:21;0.10;;;0.10;;
15490;SDS011;7847;50.930;4.336;2023-07-16T11:33:11;0.10;;;0.10;;
15490;SDS011;7847;50.930;4.336;2023-07-16T11:35:46;0.10;;;0.10;;
15490;SDS011;7847;50.930;4.336;2023-07-16T11:38:16;0.10;;;0.10;;
15490;SDS011;7847;50.930;4.336;2023-07-16T11:40:45;0.10;;;0.10;;
15490;SDS011;7847;50.930;4.336;2023-07-16T11:43:11;0.00;;;0.00;;
15490;SDS011;7847;50.930;4.336;2023-07-16T11:45:38;0.10;;;0.10;;
15490;SDS011;7847;50.930;4.336;2023-07-16T11:48:04;0.00;;;0.00;;
15490;SDS011;7847;50.930;4.336;2023-07-16T11:50:33;0.00;;;0.00;;
15490;SDS011;7847;50.930;4.336;2023-07-16T11:52:59;0.10;;;0.10;;
15490;SDS011;7847;50.930;4.336;2023-07-16T11:55:26;0.10;;;0.10;;
15490;SDS011;7847;50.930;4.336;2023-07-16T11:57:53;0.00;;;0.00;;
15490;SDS011;7847;50.930;4.336;2023-07-16T12:00:21;0.10;;;0.10;;
15490;SDS011;7847;50.930;4.336;2023-07-16T12:02:47;0.10;;;0.10;;
15490;SDS011;7847;50.930;4.336;2023-07-16T12:05:19;0.00;;;0.00;;
15490;SDS011;7847;50.930;4.336;2023-07-16T12:07:45;0.10;;;0.10;;
15490;SDS011;7847;50.930;4.336;2023-07-16T12:10:11;0.00;;;0.00;;
15490;SDS011;7847;50.930;4.336;2023-07-16T12:12:37;0.10;;;0.10;;
15490;SDS011;7847;50.930;4.336;2023-07-16T12:15:04;0.10;;;0.10;;
15490;SDS011;7847;50.930;4.336;2023-07-16T12:17:30;0.00;;;0.00;;
15490;SDS011;7847;50.930;4.336;2023-07-16T12:19:56;0.10;;;0.10;;
15490;SDS011;7847;50.930;4.336;2023-07-16T12:22:22;0.10;;;0.10;;
15490;SDS011;7847;50.930;4.336;2023-07-16T12:24:49;0.00;;;0.00;;
15490;SDS011;7847;50.930;4.336;2023-07-16T12:27:15;0.00;;;0.00;;
15490;SDS011;7847;50.930;4.336;2023-07-16T12:29:41;0.00;;;0.00;;
15490;SDS011;7847;50.930;4.336;2023-07-16T12:32:08;0.00;;;0.00;;
15490;SDS011;7847;50.930;4.336;2023-07-16T12:34:34;0.10;;;0.10;;
15490;SDS011;7847;50.930;4.336;2023-07-16T12:37:00;0.10;;;0.10;;
15490;SDS011;7847;50.930;4.336;2023-07-16T12:39:30;0.10;;;0.10;;
15490;SDS011;7847;50.930;4.336;2023-07-16T12:41:56;0.10;;;0.10;;
15490;SDS011;7847;50.930;4.336;2023-07-16T12:44:22;0.10;;;0.10;;
15490;SDS011;7847;50.930;4.336;2023-07-16T12:46:50;0.10;;;0.10;;
15490;SDS011;7847;50.930;4.336;2023-07-16T12:49:19;0.10;;;0.10;;
15490;SDS011;7847;50.930;4.336;2023-07-16T12:51:47;0.10;;;0.10;;
15490;SDS011;7847;50.930;4.336;2023-07-16T12:54:13;0.10;;;0.10;;
15490;SDS011;7847;50.930;4.336;2023-07-16T12:56:45;0.10;;;0.10;;
15490;SDS011;7847;50.930;4.336;2023-07-16T12:59:15;0.10;;;0.10;;
15490;SDS011;7847;50.930;4.336;2023-07-16T13:01:52;0.10;;;0.10;;
15490;SDS011;7847;50.930;4.336;2023-07-16T13:04:18;0.10;;;0.10;;
15490;SDS011;7847;50.930;4.336;2023-07-16T13:06:46;0.00;;;0.00;;
15490;SDS011;7847;50.930;4.336;2023-07-16T13:09:13;0.10;;;0.10;;
15490;SDS011;7847;50.930;4.336;2023-07-16T13:11:40;0.10;;;0.10;;
15490;SDS011;7847;50.930;4.336;2023-07-16T13:14:09;0.10;;;0.10;;
15490;SDS011;7847;50.930;4.336;2023-07-16T13:16:37;0.00;;;0.00;;
15490;SDS011;7847;50.930;4.336;2023-07-16T13:19:09;0.00;;;0.00;;
15490;SDS011;7847;50.930;4.336;2023-07-16T13:21:40;0.00;;;0.00;;
15490;SDS011;7847;50.930;4.336;2023-07-16T13:24:08;0.10;;;0.10;;
15490;SDS011;7847;50.930;4.336;2023-07-16T13:26:37;0.10;;;0.10;;
15490;SDS011;7847;50.930;4.336;2023-07-16T13:29:39;0.00;;;0.00;;
15490;SDS011;7847;50.930;4.336;2023-07-16T13:32:05;0.00;;;0.00;;
15490;SDS011;7847;50.930;4.336;2023-07-16T13:34:54;0.10;;;0.10;;
15490;SDS011;7847;50.930;4.336;2023-07-16T13:37:23;0.10;;;0.10;;
15490;SDS011;7847;50.930;4.336;2023-07-16T13:43:01;0.10;;;0.10;;
15490;SDS011;7847;50.930;4.336;2023-07-16T13:45:26;0.10;;;0.10;;
15490;SDS011;7847;50.930;4.336;2023-07-16T13:47:52;0.00;;;0.00;;
15490;SDS011;7847;50.930;4.336;2023-07-16T13:50:29;0.00;;;0.00;;
15490;SDS011;7847;50.930;4.336;2023-07-16T13:52:55;0.03;;;0.03;;
15490;SDS011;7847;50.930;4.336;2023-07-16T13:55:26;0.00;;;0.00;;
15490;SDS011;7847;50.930;4.336;2023-07-16T13:57:53;0.00;;;0.00;;
15490;SDS011;7847;50.930;4.336;2023-07-16T14:06:34;0.10;;;0.10;;
15490;SDS011;7847;50.930;4.336;2023-07-16T14:09:03;0.10;;;0.10;;
15490;SDS011;7847;50.930;4.336;2023-07-16T14:14:55;0.00;;;0.00;;
15490;SDS011;7847;50.930;4.336;2023-07-16T14:17:42;0.10;;;0.10;;
15490;SDS011;7847;50.930;4.336;2023-07-16T14:20:08;0.10;;;0.10;;
15490;SDS011;7847;50.930;4.336;2023-07-16T14:22:39;0.03;;;0.03;;
15490;SDS011;7847;50.930;4.336;2023-07-16T14:25:12;0.05;;;0.05;;
15490;SDS011;7847;50.930;4.336;2023-07-16T14:27:38;0.10;;;0.10;;
15490;SDS011;7847;50.930;4.336;2023-07-16T14:30:07;0.10;;;0.10;;
15490;SDS011;7847;50.930;4.336;2023-07-16T14:32:34;0.00;;;0.00;;
15490;SDS011;7847;50.930;4.336;2023-07-16T14:37:45;0.10;;;0.10;;
15490;SDS011;7847;50.930;4.336;2023-07-16T14:40:12;0.10;;;0.10;;
15490;SDS011;7847;50.930;4.336;2023-07-16T14:42:38;0.10;;;0.10;;
15490;SDS011;7847;50.930;4.336;2023-07-16T14:45:04;0.10;;;0.10;;
15490;SDS011;7847;50.930;4.336;2023-07-16T14:47:35;0.00;;;0.00;;
15490;SDS011;7847;50.930;4.336;2023-07-16T14:50:01;0.10;;;0.10;;
15490;SDS011;7847;50.930;4.336;2023-07-16T14:52:27;0.00;;;0.00;;
15490;SDS011;7847;50.930;4.336;2023-07-16T14:54:53;0.00;;;0.00;;
15490;SDS011;7847;50.930;4.336;2023-07-16T14:57:19;0.10;;;0.10;;
15490;SDS011;7847;50.930;4.336;2023-07-16T14:59:45;0.00;;;0.00;;
15490;SDS011;7847;50.930;4.336;2023-07-16T15:02:14;0.00;;;0.00;;
15490;SDS011;7847;50.930;4.336;2023-07-16T15:04:40;0.10;;;0.10;;
15490;SDS011;7847;50.930;4.336;2023-07-16T15:07:08;0.10;;;0.10;;
15490;SDS011;7847;50.930;4.336;2023-07-16T15:09:34;0.10;;;0.10;;
15490;SDS011;7847;50.930;4.336;2023-07-16T15:12:05;0.10;;;0.10;;
15490;SDS011;7847;50.930;4.336;2023-07-16T15:14:34;0.00;;;0.00;;
15490;SDS011;7847;50.930;4.336;2023-07-16T15:17:00;0.00;;;0.00;;
15490;SDS011;7847;50.930;4.336;2023-07-16T15:19:29;0.00;;;0.00;;
15490;SDS011;7847;50.930;4.336;2023-07-16T15:21:55;0.00;;;0.00;;
15490;SDS011;7847;50.930;4.336;2023-07-16T15:24:23;0.00;;;0.00;;
15490;SDS011;7847;50.930;4.336;2023-07-16T15:26:49;0.00;;;0.00;;
15490;SDS011;7847;50.930;4.336;2023-07-16T15:29:19;0.10;;;0.10;;
15490;SDS011;7847;50.930;4.336;2023-07-16T15:31:45;0.03;;;0.03;;